Time;durP1;ratioP1;P1;durP2;ratioP2;P2;SDS_P1;SDS_P2;PMS_P1;PMS_P2;Temp;Humidity;BMP_temperature;BMP_pressure;BME280_temperature;BME280_humidity;BME280_pressure;Samples;Min_cycle;Max_cycle;Signal;HPM_P1;HPM_P2
2022/04/16 00:01:42;;;;;;;2.45;1.35;;;12.00;52.00;;;;;;4988149;28;20508;-60
2022/04/16 00:04:09;;;;;;;1.50;1.27;;;11.90;52.00;;;;;;4989296;28;20034;-58
2022/04/16 00:06:38;;;;;;;6.45;1.63;;;11.90;52.10;;;;;;4982059;28;20363;-58
2022/04/16 00:09:04;;;;;;;1.70;1.45;;;11.90;52.10;;;;;;4985516;28;20074;-58
2022/04/16 00:11:30;;;;;;;2.10;1.40;;;11.80;52.10;;;;;;4989239;28;20113;-58
2022/04/16 00:13:55;;;;;;;5.68;1.67;;;11.80;52.30;;;;;;4987603;28;20031;-60
2022/04/16 00:16:21;;;;;;;2.38;1.55;;;11.80;52.30;;;;;;4991599;28;20034;-59
2022/04/16 00:18:47;;;;;;;1.60;1.40;;;11.80;52.40;;;;;;4980459;28;20034;-58
2022/04/16 00:21:13;;;;;;;1.98;1.25;;;11.80;52.50;;;;;;4985190;28;20094;-58
2022/04/16 00:23:41;;;;;;;2.20;1.35;;;11.70;52.50;;;;;;4986208;28;20038;-59
2022/04/16 00:26:07;;;;;;;1.33;1.23;;;11.70;52.50;;;;;;4986810;28;20505;-59
2022/04/16 00:28:35;;;;;;;2.10;1.30;;;11.70;52.60;;;;;;4987616;28;20027;-59
2022/04/16 00:31:01;;;;;;;2.80;1.27;;;11.70;52.60;;;;;;4992792;28;20033;-58
2022/04/16 00:33:27;;;;;;;2.03;1.20;;;11.70;52.60;;;;;;4990282;28;20034;-59
2022/04/16 00:35:53;;;;;;;1.33;1.23;;;11.70;52.70;;;;;;4983306;28;20034;-59
2022/04/16 00:38:18;;;;;;;1.58;1.40;;;11.60;52.70;;;;;;4987587;28;20031;-59
2022/04/16 00:40:44;;;;;;;1.40;1.30;;;11.60;52.80;;;;;;4983600;28;20038;-59
2022/04/16 00:43:29;;;;;;;1.60;1.38;;;11.60;52.80;;;;;;4983515;28;20033;-59
2022/04/16 00:45:56;;;;;;;3.05;1.45;;;11.50;53.50;;;;;;4986130;28;20054;-59
2022/04/16 00:48:22;;;;;;;1.67;1.25;;;11.50;52.70;;;;;;4991249;28;20055;-58
2022/04/16 00:50:54;;;;;;;1.83;1.50;;;11.50;52.90;;;;;;4985991;28;20042;-58
2022/04/16 00:53:21;;;;;;;1.40;1.30;;;11.50;53.00;;;;;;4989756;28;20061;-59
2022/04/16 00:55:48;;;;;;;1.23;1.13;;;11.40;53.00;;;;;;4981706;28;20027;-59
2022/04/16 00:58:14;;;;;;;1.85;1.20;;;11.40;53.00;;;;;;4990407;28;20138;-58
2022/04/16 01:00:39;;;;;;;2.10;1.60;;;11.40;52.90;;;;;;4981980;28;20043;-61
2022/04/16 01:03:06;;;;;;;2.55;1.50;;;11.30;52.90;;;;;;4987701;28;20430;-59
2022/04/16 01:05:31;;;;;;;1.83;1.35;;;11.30;53.00;;;;;;4982636;28;20046;-59
2022/04/16 01:07:59;;;;;;;2.40;1.58;;;11.20;53.10;;;;;;4984867;28;20038;-59
2022/04/16 01:10:28;;;;;;;2.03;1.30;;;11.20;53.40;;;;;;4988784;28;20026;-58
2022/04/16 01:12:55;;;;;;;2.70;1.50;;;11.10;53.50;;;;;;4986304;28;20089;-59
2022/04/16 01:15:22;;;;;;;2.58;1.40;;;11.10;53.50;;;;;;4988413;28;20458;-59
2022/04/16 01:17:49;;;;;;;1.48;1.30;;;11.10;53.60;;;;;;4988047;28;20023;-60
2022/04/16 01:20:16;;;;;;;1.60;1.20;;;11.10;53.70;;;;;;4986985;28;20026;-59
2022/04/16 01:22:46;;;;;;;2.60;1.40;;;11.00;53.80;;;;;;4988602;28;20043;-60
2022/04/16 01:25:12;;;;;;;1.40;1.20;;;11.00;53.70;;;;;;4994731;28;20034;-60
2022/04/16 01:27:43;;;;;;;3.03;1.40;;;11.00;53.70;;;;;;4983548;28;20033;-60
2022/04/16 01:30:21;;;;;;;1.80;1.30;;;11.00;53.80;;;;;;4982091;28;20027;-58
2022/04/16 01:32:48;;;;;;;2.50;1.60;;;10.90;54.20;;;;;;4984503;28;20066;-59
2022/04/16 01:35:15;;;;;;;1.73;1.30;;;10.90;53.70;;;;;;4984925;28;20027;-58
2022/04/16 01:37:41;;;;;;;2.63;1.77;;;10.90;53.80;;;;;;4982547;28;20057;-58
2022/04/16 01:40:11;;;;;;;1.65;1.42;;;10.90;53.80;;;;;;4990520;28;20037;-60
2022/04/16 01:42:37;;;;;;;1.75;1.48;;;10.80;54.10;;;;;;4982552;28;20034;-60
2022/04/16 01:45:03;;;;;;;1.55;1.40;;;10.80;54.00;;;;;;4985581;28;20581;-59
2022/04/16 01:47:29;;;;;;;2.25;1.73;;;10.80;54.10;;;;;;4985122;28;20054;-59
2022/04/16 01:49:55;;;;;;;1.90;1.38;;;10.70;54.10;;;;;;4990497;28;20070;-59
2022/04/16 01:52:23;;;;;;;2.10;1.60;;;10.70;54.20;;;;;;4981823;28;20043;-60
2022/04/16 01:54:49;;;;;;;2.47;1.42;;;10.60;54.10;;;;;;4989449;28;20038;-59
2022/04/16 01:57:18;;;;;;;3.08;1.50;;;10.60;54.20;;;;;;4985320;28;20030;-59
2022/04/16 01:59:45;;;;;;;2.58;1.42;;;10.60;54.30;;;;;;4986525;28;20047;-60
2022/04/16 02:02:11;;;;;;;3.90;1.70;;;10.50;54.30;;;;;;4984586;28;20082;-59
2022/04/16 02:04:36;;;;;;;1.33;1.10;;;10.50;54.40;;;;;;4988427;28;20619;-60
2022/04/16 02:07:02;;;;;;;2.17;1.50;;;10.40;54.30;;;;;;4986497;28;20023;-59
2022/04/16 02:09:28;;;;;;;1.80;1.52;;;10.40;54.20;;;;;;4986742;28;20168;-60
2022/04/16 02:11:53;;;;;;;2.05;1.50;;;10.30;54.20;;;;;;4986601;28;20029;-58
2022/04/16 02:14:21;;;;;;;2.05;1.38;;;10.20;54.30;;;;;;4980833;28;20031;-60
2022/04/16 02:16:50;;;;;;;2.20;1.35;;;10.10;54.30;;;;;;4981367;28;20086;-60
2022/04/16 02:19:16;;;;;;;3.55;1.40;;;10.10;54.50;;;;;;4982668;28;20034;-60
2022/04/16 02:21:42;;;;;;;1.40;1.30;;;10.00;54.60;;;;;;4985929;28;20041;-58
2022/04/16 02:24:08;;;;;;;1.80;1.30;;;9.90;54.70;;;;;;4981108;28;20521;-60
2022/04/16 02:26:34;;;;;;;1.88;1.67;;;9.80;54.70;;;;;;4968643;28;20022;-58
2022/04/16 02:29:00;;;;;;;1.92;1.60;;;9.80;54.80;;;;;;4985628;28;20030;-59
2022/04/16 02:31:29;;;;;;;1.67;1.55;;;9.70;54.90;;;;;;4984713;28;20454;-58
2022/04/16 02:33:57;;;;;;;2.03;1.23;;;9.70;55.10;;;;;;4984770;28;20090;-58
2022/04/16 02:36:26;;;;;;;1.98;1.45;;;9.70;55.00;;;;;;4981111;28;20030;-58
2022/04/16 02:38:56;;;;;;;2.13;1.80;;;9.60;55.20;;;;;;4980634;28;20026;-59
2022/04/16 02:41:22;;;;;;;1.90;1.70;;;9.60;55.30;;;;;;4984717;28;20714;-58
2022/04/16 02:43:47;;;;;;;2.00;1.77;;;9.50;55.40;;;;;;4984142;28;20039;-59
2022/04/16 02:48:58;;;;;;;2.17;1.73;;;9.40;55.70;;;;;;4978816;28;20042;-60
2022/04/16 02:51:24;;;;;;;1.40;1.20;;;9.40;55.80;;;;;;4975440;28;20051;-59
2022/04/16 02:53:50;;;;;;;1.33;1.23;;;9.40;56.00;;;;;;4985351;28;20030;-58
2022/04/16 02:56:16;;;;;;;1.48;1.38;;;9.40;56.10;;;;;;4984159;28;20037;-60
2022/04/16 02:58:41;;;;;;;1.55;1.45;;;9.40;56.20;;;;;;4985565;28;20108;-60
2022/04/16 03:01:07;;;;;;;1.75;1.40;;;9.40;56.70;;;;;;4988921;28;20054;-59
2022/04/16 03:03:33;;;;;;;2.53;1.77;;;9.30;56.10;;;;;;4987003;28;20034;-58
2022/04/16 03:05:59;;;;;;;2.28;1.65;;;9.30;56.20;;;;;;4982559;28;20042;-59
2022/04/16 03:08:25;;;;;;;2.00;1.63;;;9.30;56.40;;;;;;4990383;28;20090;-60
2022/04/16 03:10:51;;;;;;;1.92;1.50;;;9.30;56.50;;;;;;4979105;28;20041;-59
2022/04/16 03:13:18;;;;;;;1.95;1.63;;;9.30;56.70;;;;;;4984316;28;20034;-58
2022/04/16 03:18:28;;;;;;;1.52;1.42;;;9.30;56.90;;;;;;4985060;28;20050;-60
2022/04/16 03:20:54;;;;;;;2.72;1.40;;;9.30;56.90;;;;;;4983733;28;20042;-60
2022/04/16 03:23:19;;;;;;;2.40;1.80;;;9.30;57.00;;;;;;4983654;28;20030;-60
2022/04/16 03:25:46;;;;;;;2.83;1.70;;;9.30;57.10;;;;;;4978042;28;20043;-60
2022/04/16 03:28:11;;;;;;;2.20;1.63;;;9.30;57.20;;;;;;4980405;28;20031;-58
2022/04/16 03:30:38;;;;;;;3.45;1.90;;;9.30;57.20;;;;;;4984152;28;20256;-58
2022/04/16 03:33:04;;;;;;;2.85;1.80;;;9.30;57.30;;;;;;4982475;28;20053;-58
2022/04/16 03:35:30;;;;;;;2.78;1.75;;;9.40;57.40;;;;;;4980113;28;20038;-58
2022/04/16 03:37:56;;;;;;;2.65;1.75;;;9.40;57.40;;;;;;4982879;28;20037;-60
2022/04/16 03:40:26;;;;;;;3.80;2.17;;;9.40;57.40;;;;;;4988187;28;20077;-59
2022/04/16 03:42:57;;;;;;;1.83;1.55;;;9.40;57.30;;;;;;4982667;28;20021;-58
2022/04/16 03:45:25;;;;;;;2.70;1.90;;;9.40;57.30;;;;;;4986942;28;20046;-59
2022/04/16 03:47:51;;;;;;;2.15;1.92;;;9.40;57.20;;;;;;4978366;28;20026;-58
2022/04/16 03:50:18;;;;;;;4.53;1.70;;;9.40;57.10;;;;;;4985763;28;20389;-59
2022/04/16 03:52:46;;;;;;;3.45;2.00;;;9.30;57.10;;;;;;4989966;28;20027;-60
2022/04/16 04:00:45;;;;;;;3.35;1.88;;;9.30;57.10;;;;;;4977821;28;20062;-59
2022/04/16 04:03:11;;;;;;;3.38;2.00;;;9.20;57.00;;;;;;4980535;28;20034;-59
2022/04/16 04:05:38;;;;;;;3.42;1.95;;;9.20;57.20;;;;;;4986022;28;20042;-60
2022/04/16 04:08:05;;;;;;;2.35;1.73;;;9.20;57.30;;;;;;4984536;28;20395;-60
2022/04/16 04:10:31;;;;;;;2.38;1.90;;;9.10;57.30;;;;;;4989907;28;20632;-58
2022/04/16 04:12:57;;;;;;;2.97;1.65;;;9.10;57.40;;;;;;4987598;28;20037;-58
2022/04/16 04:15:23;;;;;;;2.70;1.92;;;9.10;57.50;;;;;;4976213;28;20067;-59
2022/04/16 04:17:50;;;;;;;3.30;1.90;;;9.10;57.50;;;;;;4987226;28;20031;-58
2022/04/16 04:20:16;;;;;;;2.20;1.60;;;9.10;57.50;;;;;;4986110;28;20037;-60
2022/04/16 04:22:42;;;;;;;2.38;2.10;;;9.10;57.70;;;;;;4985000;28;20038;-60
2022/04/16 04:25:08;;;;;;;2.15;1.60;;;9.10;57.80;;;;;;4988269;28;20047;-59
2022/04/16 04:27:34;;;;;;;2.33;1.83;;;9.10;58.00;;;;;;4987768;28;20446;-60
2022/04/16 04:30:02;;;;;;;1.95;1.75;;;9.10;58.10;;;;;;4986454;28;20035;-58
2022/04/16 04:32:28;;;;;;;3.85;2.13;;;9.10;58.10;;;;;;4985463;28;20107;-58
2022/04/16 04:34:54;;;;;;;3.45;1.92;;;9.10;58.20;;;;;;4988116;28;20038;-59
2022/04/16 04:37:20;;;;;;;3.13;2.03;;;9.10;58.20;;;;;;4983893;28;20027;-58
2022/04/16 04:39:45;;;;;;;2.65;1.90;;;9.10;58.40;;;;;;4991050;28;20063;-58
2022/04/16 04:42:11;;;;;;;3.35;2.00;;;9.10;58.40;;;;;;4988250;28;20042;-59
2022/04/16 04:44:37;;;;;;;5.57;2.13;;;9.20;58.50;;;;;;4983895;28;20051;-59
2022/04/16 04:47:03;;;;;;;3.25;2.15;;;9.20;58.50;;;;;;4986044;28;20031;-59
2022/04/16 04:49:28;;;;;;;2.70;2.30;;;9.20;58.60;;;;;;4991302;28;20034;-58
2022/04/16 04:51:54;;;;;;;2.30;2.10;;;9.20;58.70;;;;;;4982848;28;20034;-58
2022/04/16 04:54:21;;;;;;;2.58;2.38;;;9.20;58.70;;;;;;4981273;28;20053;-58
2022/04/16 04:56:47;;;;;;;4.55;2.83;;;9.30;58.90;;;;;;4978965;28;20034;-59
2022/04/16 04:59:12;;;;;;;3.30;2.60;;;9.30;59.10;;;;;;4984550;28;20051;-59
2022/04/16 05:01:38;;;;;;;6.40;3.17;;;9.30;58.90;;;;;;4982028;28;20449;-58
2022/04/16 05:04:04;;;;;;;4.25;2.83;;;9.30;59.00;;;;;;4986343;28;20027;-60
2022/04/16 05:06:30;;;;;;;3.60;2.80;;;9.40;59.00;;;;;;4982299;28;20037;-58
2022/04/16 05:08:56;;;;;;;4.60;3.17;;;9.40;59.00;;;;;;4989008;28;20188;-58
2022/04/16 05:11:22;;;;;;;4.93;3.13;;;9.50;59.40;;;;;;4980683;28;20039;-58
2022/04/16 05:13:48;;;;;;;3.75;2.92;;;9.50;59.00;;;;;;4989185;28;20037;-60
2022/04/16 05:16:13;;;;;;;4.40;3.35;;;9.50;58.80;;;;;;4982563;28;20018;-58
2022/04/16 05:18:41;;;;;;;3.90;2.72;;;9.60;59.00;;;;;;4989420;28;20027;-60
2022/04/16 05:21:07;;;;;;;4.80;3.40;;;9.70;58.90;;;;;;4983955;28;20077;-59
2022/04/16 05:23:32;;;;;;;4.63;3.50;;;9.70;58.90;;;;;;4984473;28;20074;-59
2022/04/16 05:25:58;;;;;;;4.22;3.25;;;9.70;59.00;;;;;;4987868;28;20043;-60
2022/04/16 05:28:23;;;;;;;6.63;3.88;;;9.80;59.00;;;;;;4987768;28;20086;-59
2022/04/16 05:30:54;;;;;;;5.10;3.60;;;9.80;59.10;;;;;;4986358;28;20057;-60
2022/04/16 05:36:07;;;;;;;4.68;3.22;;;9.90;59.20;;;;;;4981059;28;20037;-60
2022/04/16 05:38:33;;;;;;;4.70;3.50;;;10.00;59.00;;;;;;4978917;28;20026;-60
2022/04/16 05:40:59;;;;;;;4.07;3.47;;;10.00;59.00;;;;;;4992602;28;20038;-60
2022/04/16 05:43:25;;;;;;;5.75;3.95;;;10.10;59.30;;;;;;4982981;28;20042;-58
2022/04/16 05:45:50;;;;;;;4.93;3.58;;;10.10;59.00;;;;;;4994964;28;20034;-60
2022/04/16 05:48:16;;;;;;;4.38;3.40;;;10.20;59.00;;;;;;4983967;28;20023;-59
2022/04/16 05:50:43;;;;;;;4.97;3.50;;;10.20;58.90;;;;;;4988214;28;20081;-60
2022/04/16 05:53:11;;;;;;;5.05;3.70;;;10.30;59.50;;;;;;4981685;28;20030;-59
2022/04/16 05:55:43;;;;;;;4.78;3.22;;;10.30;59.00;;;;;;4990543;28;20019;-60
2022/04/16 05:58:09;;;;;;;5.95;4.00;;;10.30;59.10;;;;;;4981419;28;20027;-60
2022/04/16 06:00:37;;;;;;;8.00;4.13;;;10.40;58.90;;;;;;4986174;28;20050;-60
2022/04/16 06:03:04;;;;;;;3.85;3.47;;;10.50;59.00;;;;;;4991061;28;20022;-59
2022/04/16 06:05:31;;;;;;;4.57;3.65;;;10.50;58.70;;;;;;4991928;28;20043;-60
2022/04/16 06:07:57;;;;;;;4.10;3.47;;;10.60;58.70;;;;;;4986337;28;20090;-60
2022/04/16 06:10:23;;;;;;;5.57;3.85;;;10.60;58.70;;;;;;4987113;28;20935;-60
2022/04/16 06:12:49;;;;;;;6.43;3.58;;;10.70;58.80;;;;;;4979364;28;20031;-59
2022/04/16 06:15:14;;;;;;;4.85;3.50;;;10.70;58.70;;;;;;4984535;28;20023;-58
2022/04/16 06:17:40;;;;;;;4.68;3.70;;;10.70;58.50;;;;;;4989469;28;20377;-60
2022/04/16 06:20:08;;;;;;;5.95;4.07;;;10.80;58.30;;;;;;4986365;28;20442;-60
2022/04/16 06:22:34;;;;;;;4.60;3.47;;;10.80;58.30;;;;;;4988815;28;20023;-59
2022/04/16 06:25:00;;;;;;;3.53;3.22;;;10.90;58.40;;;;;;4979930;28;20041;-60
2022/04/16 06:27:26;;;;;;;5.38;3.80;;;10.90;58.30;;;;;;4985300;28;20026;-58
2022/04/16 06:29:52;;;;;;;11.88;4.35;;;10.90;58.30;;;;;;4982972;28;22286;-58
2022/04/16 06:32:17;;;;;;;4.97;3.80;;;11.00;58.40;;;;;;4984652;28;20449;-58
2022/04/16 06:34:43;;;;;;;6.47;3.95;;;11.00;58.30;;;;;;4984767;28;20026;-58
2022/04/16 06:37:09;;;;;;;6.43;4.18;;;11.00;58.10;;;;;;4986879;28;20027;-57
2022/04/16 06:39:35;;;;;;;6.28;4.22;;;11.00;58.20;;;;;;4984244;28;20023;-58
2022/04/16 06:42:00;;;;;;;11.55;4.28;;;11.00;58.10;;;;;;4985950;28;20037;-58
2022/04/16 06:44:26;;;;;;;6.50;4.57;;;11.00;58.10;;;;;;4974351;28;20035;-59
2022/04/16 06:46:54;;;;;;;6.55;4.25;;;11.00;58.20;;;;;;4986692;28;20030;-58
2022/04/16 06:49:20;;;;;;;6.38;4.68;;;11.00;58.20;;;;;;4980668;28;20034;-59
2022/04/16 06:51:46;;;;;;;6.20;4.45;;;11.00;58.30;;;;;;4988701;28;20031;-58
2022/04/16 06:54:11;;;;;;;6.50;4.50;;;11.00;58.50;;;;;;4983334;28;20030;-58
2022/04/16 06:56:37;;;;;;;7.70;4.70;;;11.10;58.40;;;;;;4982291;28;20041;-60
2022/04/16 06:59:03;;;;;;;6.22;4.47;;;11.10;58.40;;;;;;4987924;28;20054;-60
2022/04/16 07:01:29;;;;;;;6.22;4.55;;;11.10;58.40;;;;;;4985976;28;20030;-59
2022/04/16 07:03:54;;;;;;;9.75;5.03;;;11.20;58.20;;;;;;4985545;28;20114;-59
2022/04/16 07:06:20;;;;;;;8.23;5.28;;;11.20;58.40;;;;;;4963256;28;20054;-59
2022/04/16 07:08:46;;;;;;;8.48;5.35;;;11.20;58.20;;;;;;4983497;28;20038;-60
2022/04/16 07:11:11;;;;;;;9.20;5.80;;;11.30;58.10;;;;;;4984489;28;20478;-59
2022/04/16 07:13:37;;;;;;;7.32;5.47;;;11.20;58.40;;;;;;4985217;28;20035;-58
2022/04/16 07:16:03;;;;;;;9.95;5.55;;;11.20;58.40;;;;;;4986791;28;20019;-58
2022/04/16 07:18:29;;;;;;;8.93;5.10;;;11.20;58.10;;;;;;4983441;28;20114;-59
2022/04/16 07:20:54;;;;;;;5.55;4.93;;;11.20;58.40;;;;;;4985938;28;20499;-60
2022/04/16 07:23:20;;;;;;;6.95;5.53;;;11.20;58.30;;;;;;4986927;28;20405;-59
2022/04/16 07:25:45;;;;;;;6.90;5.60;;;11.20;58.30;;;;;;4986883;28;20094;-59
2022/04/16 07:28:12;;;;;;;7.75;5.60;;;11.20;58.40;;;;;;4979610;28;20050;-61
2022/04/16 07:30:38;;;;;;;8.38;5.88;;;11.30;58.30;;;;;;4988692;28;20050;-60
2022/04/16 07:33:04;;;;;;;9.38;5.28;;;11.30;58.40;;;;;;4985816;28;20026;-60
2022/04/16 07:35:29;;;;;;;7.45;5.10;;;11.30;58.50;;;;;;4988361;28;20041;-59
2022/04/16 07:37:58;;;;;;;7.00;5.28;;;11.30;58.60;;;;;;4986220;28;20031;-59
2022/04/16 07:40:25;;;;;;;6.47;4.82;;;11.30;58.50;;;;;;4987937;28;20054;-61
2022/04/16 07:42:51;;;;;;;8.70;5.68;;;11.40;58.40;;;;;;4986739;28;20508;-60
2022/04/16 07:45:16;;;;;;;8.05;5.30;;;11.40;58.50;;;;;;4985189;28;20094;-58
2022/04/16 07:47:42;;;;;;;7.50;5.30;;;11.40;58.30;;;;;;4983511;28;20019;-59
2022/04/16 07:50:08;;;;;;;8.30;5.80;;;11.50;58.60;;;;;;4981190;28;20609;-59
2022/04/16 07:52:34;;;;;;;7.13;5.55;;;11.50;58.50;;;;;;4982431;28;20026;-59
2022/04/16 07:55:00;;;;;;;10.48;5.60;;;11.50;58.50;;;;;;4985268;28;20041;-59
2022/04/16 07:57:26;;;;;;;6.35;5.22;;;11.60;58.50;;;;;;4989644;28;20034;-59
2022/04/16 07:59:53;;;;;;;8.88;5.55;;;11.60;58.50;;;;;;4987373;28;20134;-61
2022/04/16 08:02:20;;;;;;;6.95;5.10;;;11.60;58.20;;;;;;4979194;28;20027;-59
2022/04/16 08:04:45;;;;;;;7.38;5.50;;;11.70;58.30;;;;;;4982418;28;20498;-59
2022/04/16 08:07:11;;;;;;;6.63;4.85;;;11.70;58.20;;;;;;4981373;28;20035;-61
2022/04/16 08:09:37;;;;;;;7.40;5.68;;;11.70;58.00;;;;;;4990320;28;20022;-60
2022/04/16 08:12:04;;;;;;;7.43;5.07;;;11.70;58.10;;;;;;4981017;28;20026;-61
2022/04/16 08:14:29;;;;;;;6.65;4.93;;;11.80;58.10;;;;;;4978464;28;20041;-60
2022/04/16 08:16:56;;;;;;;9.32;4.95;;;11.80;57.80;;;;;;4986857;28;20034;-59
2022/04/16 08:19:22;;;;;;;9.35;5.20;;;11.80;57.80;;;;;;4979052;28;20041;-59
2022/04/16 08:21:48;;;;;;;6.32;4.53;;;11.90;57.90;;;;;;4978853;28;20117;-61
2022/04/16 08:24:22;;;;;;;7.03;4.68;;;11.90;57.80;;;;;;4964323;28;20070;-61
2022/04/16 08:26:48;;;;;;;;;;;12.00;57.80;;;;;;4896063;28;20510;-60
2022/04/16 08:29:15;;;;;;;5.25;3.80;;;12.10;57.60;;;;;;4964653;28;19933;-60
2022/04/16 08:31:41;;;;;;;7.60;3.67;;;12.20;57.20;;;;;;4979164;28;20045;-59
2022/04/16 08:34:06;;;;;;;6.40;3.70;;;12.20;57.10;;;;;;4991237;28;20058;-63
2022/04/16 08:36:32;;;;;;;5.60;4.22;;;12.30;57.10;;;;;;4981126;28;20031;-61
2022/04/16 08:38:58;;;;;;;8.00;4.03;;;12.40;56.90;;;;;;4981376;28;20027;-60
2022/04/16 08:41:25;;;;;;;4.30;3.50;;;12.40;56.70;;;;;;4989354;28;20053;-59
2022/04/16 08:43:53;;;;;;;6.65;4.13;;;12.50;56.50;;;;;;4989565;28;20027;-59
2022/04/16 08:46:19;;;;;;;6.75;3.83;;;12.50;56.30;;;;;;4985289;28;20035;-59
2022/04/16 08:48:45;;;;;;;5.80;4.07;;;12.80;56.00;;;;;;4991706;28;20034;-60
2022/04/16 08:51:12;;;;;;;5.57;3.80;;;12.60;55.80;;;;;;4987985;28;20019;-59
2022/04/16 08:53:37;;;;;;;4.90;3.30;;;12.60;55.70;;;;;;4991019;28;20034;-60
2022/04/16 08:56:03;;;;;;;5.53;3.72;;;12.60;55.70;;;;;;4986794;28;20022;-59
2022/04/16 08:58:30;;;;;;;5.88;4.00;;;12.70;55.70;;;;;;4984604;28;20026;-61
2022/04/16 09:00:56;;;;;;;5.80;3.42;;;12.70;55.60;;;;;;4967340;28;20441;-60
2022/04/16 09:03:30;;;;;;;4.53;3.65;;;12.80;55.50;;;;;;4982880;28;20485;-60
2022/04/16 09:05:55;;;;;;;4.85;3.67;;;12.80;55.40;;;;;;4985648;28;20037;-60
2022/04/16 09:08:28;;;;;;;5.03;3.55;;;12.90;55.30;;;;;;4988623;28;20058;-60
2022/04/16 09:11:07;;;;;;;4.78;3.63;;;12.90;55.10;;;;;;4989636;28;20038;-61
2022/04/16 09:13:33;;;;;;;6.35;4.15;;;13.00;55.00;;;;;;4987401;28;20046;-61
2022/04/16 09:16:04;;;;;;;4.88;3.80;;;13.00;55.40;;;;;;4980022;28;20115;-59
2022/04/16 09:18:30;;;;;;;6.50;3.75;;;13.00;54.50;;;;;;4973606;28;20094;-60
2022/04/16 09:20:55;;;;;;;6.18;4.20;;;13.10;54.60;;;;;;4986355;28;20413;-60
2022/04/16 09:23:22;;;;;;;7.40;4.20;;;13.10;54.60;;;;;;4988366;28;20027;-59
2022/04/16 09:25:50;;;;;;;4.75;3.60;;;13.10;54.30;;;;;;4985194;28;20035;-59
2022/04/16 09:28:21;;;;;;;5.97;3.60;;;13.10;54.10;;;;;;4985245;28;20063;-59
2022/04/16 09:30:52;;;;;;;4.95;3.50;;;13.10;54.10;;;;;;4981598;28;20022;-59
2022/04/16 09:33:19;;;;;;;5.55;3.65;;;13.10;53.90;;;;;;4990831;28;20027;-59
2022/04/16 09:35:46;;;;;;;4.80;3.75;;;13.10;53.90;;;;;;4983989;28;20055;-60
2022/04/16 09:38:12;;;;;;;5.35;3.97;;;13.10;54.10;;;;;;4987636;28;20022;-59
2022/04/16 09:40:38;;;;;;;4.95;3.38;;;13.10;54.00;;;;;;4987644;28;20713;-60
2022/04/16 09:43:06;;;;;;;4.32;3.50;;;13.20;54.10;;;;;;4988363;28;20034;-59
2022/04/16 09:45:33;;;;;;;5.07;3.72;;;13.20;53.90;;;;;;4989309;28;20046;-59
2022/04/16 09:47:59;;;;;;;4.75;3.80;;;13.20;54.00;;;;;;4985752;28;20120;-59
2022/04/16 09:50:27;;;;;;;5.10;4.07;;;13.30;53.70;;;;;;4961311;28;20599;-60
2022/04/16 09:52:56;;;;;;;4.38;3.20;;;13.30;53.80;;;;;;4981159;28;20041;-59
2022/04/16 09:55:23;;;;;;;6.50;3.25;;;13.30;53.50;;;;;;4985673;28;20110;-61
2022/04/16 09:58:07;;;;;;;4.38;2.95;;;13.40;53.50;;;;;;4985170;28;20027;-60
2022/04/16 10:00:37;;;;;;;4.75;3.30;;;13.50;53.50;;;;;;4985616;28;20038;-59
2022/04/16 10:03:07;;;;;;;4.13;3.08;;;13.60;53.60;;;;;;4987413;28;20053;-59
2022/04/16 10:05:34;;;;;;;4.50;3.20;;;13.80;53.60;;;;;;4981748;28;20699;-60
2022/04/16 10:07:59;;;;;;;5.13;3.30;;;13.90;53.30;;;;;;4985880;28;20023;-60
2022/04/16 10:10:30;;;;;;;4.30;3.13;;;14.10;53.00;;;;;;4988082;28;20045;-60
2022/04/16 10:13:00;;;;;;;3.40;2.80;;;14.30;53.10;;;;;;4986144;28;20034;-59
2022/04/16 10:15:39;;;;;;;5.68;2.97;;;14.40;52.70;;;;;;4984580;28;20031;-60
2022/04/16 10:18:04;;;;;;;3.95;2.70;;;14.60;52.10;;;;;;4985264;28;20054;-60
2022/04/16 10:20:30;;;;;;;2.90;2.58;;;14.80;52.20;;;;;;4989334;28;20152;-59
2022/04/16 10:23:03;;;;;;;3.88;2.42;;;14.90;52.20;;;;;;4977454;28;20023;-60
2022/04/16 10:25:34;;;;;;;3.87;2.53;;;15.00;50.70;;;;;;4982715;28;20098;-60
2022/04/16 10:28:04;;;;;;;2.92;2.15;;;15.10;51.00;;;;;;4983395;28;20285;-60
2022/04/16 10:30:36;;;;;;;3.17;2.65;;;15.20;50.90;;;;;;4979209;28;20027;-61
2022/04/16 10:33:16;;;;;;;2.65;2.22;;;15.30;50.30;;;;;;4966504;28;20077;-60
2022/04/16 10:35:49;;;;;;;2.30;2.00;;;15.40;49.40;;;;;;4984876;28;20037;-60
2022/04/16 10:38:42;;;;;;;5.32;2.47;;;15.40;50.00;;;;;;4982776;28;20030;-60
2022/04/16 10:41:12;;;;;;;3.17;2.22;;;15.40;49.50;;;;;;4977472;28;20049;-60
2022/04/16 10:43:38;;;;;;;3.55;2.85;;;15.40;48.90;;;;;;4982975;28;20027;-60
2022/04/16 10:46:09;;;;;;;3.55;2.38;;;15.40;48.50;;;;;;4975253;28;20062;-60
2022/04/16 10:48:37;;;;;;;5.95;2.22;;;15.30;49.00;;;;;;4973851;28;20026;-60
2022/04/16 10:51:04;;;;;;;2.65;2.30;;;15.20;48.90;;;;;;4980547;28;20026;-60
2022/04/16 10:53:39;;;;;;;3.15;2.50;;;15.20;49.20;;;;;;4982364;28;20027;-59
2022/04/16 10:56:16;;;;;;;3.10;2.60;;;15.10;49.30;;;;;;4978499;28;20427;-59
2022/04/16 10:58:47;;;;;;;3.17;2.40;;;15.00;49.20;;;;;;4973500;28;20107;-61
2022/04/16 11:01:25;;;;;;;4.72;3.15;;;15.00;49.60;;;;;;4984657;28;20023;-60
2022/04/16 11:03:51;;;;;;;3.95;2.78;;;14.90;49.70;;;;;;4978230;28;20033;-60
2022/04/16 11:06:17;;;;;;;4.38;3.17;;;14.90;49.90;;;;;;4987158;28;20053;-60
2022/04/16 11:08:45;;;;;;;6.30;3.30;;;14.80;49.90;;;;;;4979841;28;20026;-60
2022/04/16 11:11:13;;;;;;;6.60;3.60;;;14.80;49.90;;;;;;4986218;28;20015;-60
2022/04/16 11:13:40;;;;;;;7.85;3.83;;;14.70;49.90;;;;;;4986771;28;20023;-60
2022/04/16 11:16:06;;;;;;;6.50;4.45;;;14.70;50.00;;;;;;4986845;28;20023;-60
2022/04/16 11:18:45;;;;;;;7.25;5.00;;;14.70;50.20;;;;;;4984279;28;20026;-60
2022/04/16 11:21:12;;;;;;;7.75;5.70;;;14.60;50.90;;;;;;4980394;28;20027;-60
2022/04/16 11:23:48;;;;;;;12.88;5.80;;;14.60;50.40;;;;;;4981626;28;20031;-61
2022/04/16 11:34:33;;;;;;;10.13;6.25;;;14.60;51.20;;;;;;4988244;28;20049;-61
2022/04/16 11:36:59;;;;;;;8.60;5.65;;;14.80;51.20;;;;;;4981108;28;20031;-59
2022/04/16 11:39:31;;;;;;;7.65;5.45;;;15.00;51.00;;;;;;4984400;28;20466;-60
2022/04/16 11:41:59;;;;;;;8.05;5.40;;;15.20;51.40;;;;;;4989487;28;20023;-59
2022/04/16 11:44:41;;;;;;;7.18;4.82;;;15.50;51.40;;;;;;4984292;28;20030;-60
2022/04/16 11:47:12;;;;;;;7.50;4.93;;;15.80;50.70;;;;;;4981512;28;20070;-60
2022/04/16 11:49:46;;;;;;;6.32;4.43;;;16.10;50.70;;;;;;4986263;28;20087;-60
2022/04/16 11:52:13;;;;;;;8.35;4.65;;;16.30;50.10;;;;;;4985255;28;20023;-61
2022/04/16 11:54:39;;;;;;;5.50;4.35;;;16.60;49.50;;;;;;4973206;28;20044;-61
2022/04/16 11:57:05;;;;;;;4.68;3.20;;;16.80;49.10;;;;;;4985572;28;20039;-59
2022/04/16 11:59:32;;;;;;;4.75;3.03;;;17.00;48.50;;;;;;4987859;28;20034;-60
2022/04/16 12:01:59;;;;;;;10.25;6.95;;;17.20;47.70;;;;;;4982831;28;20027;-60
2022/04/16 12:04:37;;;;;;;5.43;4.07;;;17.30;46.90;;;;;;4980489;28;20034;-61
2022/04/16 12:07:08;;;;;;;3.95;2.95;;;17.30;45.00;;;;;;4987959;28;20070;-59
2022/04/16 12:09:34;;;;;;;4.93;3.40;;;17.30;45.70;;;;;;4983368;28;20039;-59
2022/04/16 12:12:01;;;;;;;4.15;3.13;;;17.20;45.20;;;;;;4986966;28;20124;-62
2022/04/16 12:14:26;;;;;;;4.78;3.10;;;17.10;45.50;;;;;;4985585;28;20034;-59
2022/04/16 12:17:02;;;;;;;4.25;3.30;;;17.10;46.10;;;;;;4980997;28;20027;-60
2022/04/16 12:19:31;;;;;;;6.28;2.25;;;17.20;45.50;;;;;;4987051;28;20057;-60
2022/04/16 12:21:57;;;;;;;2.97;2.15;;;17.30;45.40;;;;;;4982734;28;20037;-59
2022/04/16 12:24:26;;;;;;;2.88;2.20;;;17.40;45.20;;;;;;4984826;28;20042;-60
2022/04/16 12:26:52;;;;;;;2.67;2.35;;;17.40;44.10;;;;;;4982149;28;20047;-60
2022/04/16 12:29:24;;;;;;;2.72;2.13;;;17.40;44.20;;;;;;4986023;28;20030;-59
2022/04/16 12:31:57;;;;;;;3.25;2.75;;;17.40;43.70;;;;;;4985105;28;20034;-60
2022/04/16 12:34:23;;;;;;;5.07;3.13;;;17.60;44.80;;;;;;4986346;28;20023;-59
2022/04/16 12:36:49;;;;;;;4.38;3.33;;;17.80;44.80;;;;;;4980223;28;20031;-61
2022/04/16 12:39:14;;;;;;;3.28;2.63;;;17.90;44.40;;;;;;4987118;28;20026;-61
2022/04/16 12:41:40;;;;;;;3.72;2.78;;;18.10;43.90;;;;;;4989130;28;20038;-61
2022/04/16 12:44:06;;;;;;;3.30;2.60;;;18.10;43.20;;;;;;4986618;28;20117;-60
2022/04/16 12:46:31;;;;;;;5.72;2.60;;;18.10;42.70;;;;;;4983543;28;20457;-60
2022/04/16 12:48:57;;;;;;;3.47;2.58;;;18.00;42.40;;;;;;4988718;28;20014;-60
2022/04/16 12:51:24;;;;;;;3.45;2.55;;;18.00;42.80;;;;;;4984792;28;20046;-60
2022/04/16 12:53:49;;;;;;;2.88;1.95;;;18.10;43.40;;;;;;4984837;28;20015;-60
2022/04/16 12:56:15;;;;;;;2.90;2.60;;;18.10;42.70;;;;;;4980734;28;20070;-59
2022/04/16 12:58:40;;;;;;;3.00;2.60;;;18.20;41.20;;;;;;4986536;28;20077;-61
2022/04/16 13:01:06;;;;;;;3.45;2.60;;;18.30;40.90;;;;;;4982025;28;20069;-60
2022/04/16 13:03:32;;;;;;;3.05;2.67;;;18.20;41.00;;;;;;4985604;28;20046;-60
2022/04/16 13:05:58;;;;;;;6.15;2.60;;;18.00;40.50;;;;;;4984766;28;20074;-61
2022/04/16 13:08:24;;;;;;;3.55;2.33;;;17.90;40.60;;;;;;4978877;28;20430;-60
2022/04/16 13:10:50;;;;;;;3.20;2.50;;;17.70;41.20;;;;;;4985443;28;20026;-60
2022/04/16 13:13:16;;;;;;;2.10;1.90;;;17.70;41.70;;;;;;4985221;28;20743;-61